Time;durP1;ratioP1;P1;durP2;ratioP2;P2;SDS_P1;SDS_P2;PMS_P1;PMS_P2;Temp;Humidity;BMP_temperature;BMP_pressure;BME280_temperature;BME280_humidity;BME280_pressure;Samples;Min_cycle;Max_cycle;Signal;HPM_P1;HPM_P2
2022/09/28 00:00:33;;;;;;;2.53;1.70;;;9.50;99.90;;;;;;5224612;28;20268;-49
2022/09/28 00:03:04;;;;;;;1.30;1.30;;;9.50;99.90;;;;;;5222769;28;20209;-50
2022/09/28 00:05:35;;;;;;;1.97;1.40;;;9.50;99.90;;;;;;5224780;28;20262;-47
2022/09/28 00:08:05;;;;;;;1.27;1.23;;;9.50;99.90;;;;;;5224808;28;20556;-48
2022/09/28 00:10:36;;;;;;;5.90;1.87;;;9.70;99.90;;;;;;5224321;28;20694;-48
2022/09/28 00:13:07;;;;;;;1.57;1.47;;;9.60;99.90;;;;;;5241467;28;20202;-47
2022/09/28 00:15:37;;;;;;;1.73;1.40;;;9.60;99.90;;;;;;5216297;28;20607;-49
2022/09/28 00:18:08;;;;;;;2.40;1.90;;;9.60;99.90;;;;;;5227206;28;20187;-48
2022/09/28 00:20:38;;;;;;;1.73;1.63;;;9.70;99.90;;;;;;5222476;28;20210;-50
2022/09/28 00:23:09;;;;;;;1.60;1.50;;;9.90;99.90;;;;;;5226203;28;20199;-48
2022/09/28 00:25:39;;;;;;;1.30;1.30;;;10.00;99.90;;;;;;5224131;28;20186;-49
2022/09/28 00:28:10;;;;;;;2.93;2.10;;;10.00;99.90;;;;;;5224776;28;20183;-48
2022/09/28 00:30:40;;;;;;;1.20;1.20;;;10.10;99.90;;;;;;5222142;28;20183;-47
2022/09/28 00:33:11;;;;;;;2.07;1.97;;;9.80;99.90;;;;;;5229715;28;20218;-49
2022/09/28 00:35:42;;;;;;;2.00;2.00;;;9.80;99.90;;;;;;5229734;28;20182;-51
2022/09/28 00:38:15;;;;;;;5.80;2.00;;;9.90;99.90;;;;;;5225482;28;20186;-49
2022/09/28 00:40:46;;;;;;;2.03;1.90;;;10.00;99.90;;;;;;5223651;28;20953;-48
2022/09/28 00:43:19;;;;;;;3.60;2.30;;;9.80;99.90;;;;;;5226636;28;20468;-49
2022/09/28 00:46:02;;;;;;;3.00;2.00;;;9.70;99.90;;;;;;5221322;28;20643;-48
2022/09/28 00:48:36;;;;;;;1.43;1.43;;;9.90;99.90;;;;;;5232330;28;20999;-48
2022/09/28 00:51:11;;;;;;;1.97;1.87;;;9.70;99.90;;;;;;5224733;28;20540;-49
2022/09/28 00:53:43;;;;;;;4.97;2.40;;;9.80;99.90;;;;;;5214754;28;20458;-48
2022/09/28 00:56:18;;;;;;;2.50;2.40;;;9.80;99.90;;;;;;5232024;28;20864;-49
2022/09/28 00:58:51;;;;;;;2.07;1.93;;;9.60;99.90;;;;;;5227259;28;20824;-49
2022/09/28 01:01:22;;;;;;;2.37;2.10;;;9.60;99.90;;;;;;5222808;28;20957;-49
2022/09/28 01:03:53;;;;;;;2.37;2.27;;;9.70;99.90;;;;;;5224624;28;20453;-48
2022/09/28 01:06:29;;;;;;;1.87;1.77;;;9.70;99.90;;;;;;5226360;28;20172;-50
2022/09/28 01:09:04;;;;;;;2.03;2.03;;;9.60;99.90;;;;;;5217531;28;20449;-48
2022/09/28 01:11:37;;;;;;;2.07;1.97;;;9.60;99.90;;;;;;5239702;28;20413;-49
2022/09/28 01:14:12;;;;;;;2.37;2.27;;;9.70;99.90;;;;;;5225993;28;20472;-49
2022/09/28 01:16:56;;;;;;;2.53;1.90;;;9.60;99.90;;;;;;5208113;28;20967;-50
2022/09/28 01:19:56;;;;;;;2.10;2.00;;;9.60;99.90;;;;;;5231510;28;20453;-49
2022/09/28 01:22:56;;;;;;;2.80;2.47;;;9.50;99.90;;;;;;5221511;28;20929;-49
2022/09/28 01:25:59;;;;;;;2.40;2.20;;;9.60;99.90;;;;;;5221978;28;20429;-49
2022/09/28 01:28:31;;;;;;;2.77;2.23;;;9.70;99.90;;;;;;5202722;28;20447;-49
2022/09/28 01:31:08;;;;;;;7.30;2.97;;;9.70;99.90;;;;;;5224172;28;20794;-49
2022/09/28 01:33:46;;;;;;;2.50;2.30;;;9.80;99.90;;;;;;5222864;28;20457;-50
2022/09/28 01:36:26;;;;;;;2.60;2.50;;;9.70;99.90;;;;;;5225304;28;20417;-50
2022/09/28 01:39:14;;;;;;;2.67;2.50;;;9.80;99.90;;;;;;5223703;28;20980;-47
2022/09/28 01:41:50;;;;;;;2.23;2.23;;;9.70;99.90;;;;;;5225695;28;20421;-52
2022/09/28 01:44:23;;;;;;;2.90;2.80;;;9.60;99.90;;;;;;5229459;28;20448;-48
2022/09/28 01:46:53;;;;;;;2.43;2.33;;;9.60;99.90;;;;;;5222590;28;20540;-48
2022/09/28 01:49:33;;;;;;;2.57;1.93;;;9.70;99.90;;;;;;5227895;28;20531;-48
2022/09/28 01:52:14;;;;;;;1.60;1.60;;;9.60;99.90;;;;;;5222886;28;20187;-48
2022/09/28 01:54:56;;;;;;;1.60;1.50;;;9.50;99.90;;;;;;5222666;28;20461;-50
2022/09/28 01:57:39;;;;;;;1.43;1.33;;;9.40;99.90;;;;;;5227742;28;20443;-48
2022/09/28 02:00:13;;;;;;;1.70;1.70;;;9.40;99.90;;;;;;5221977;28;20540;-48
2022/09/28 02:02:47;;;;;;;2.13;1.90;;;9.60;99.90;;;;;;5229311;28;20435;-47
2022/09/28 02:05:23;;;;;;;1.30;1.20;;;9.50;99.90;;;;;;5219503;28;20959;-49
2022/09/28 02:08:14;;;;;;;1.37;1.30;;;9.40;99.90;;;;;;5227563;28;20896;-48
2022/09/28 02:10:54;;;;;;;1.40;1.30;;;9.30;99.90;;;;;;5224368;28;20964;-48
2022/09/28 02:13:48;;;;;;;1.67;1.60;;;9.30;99.90;;;;;;5221451;28;20546;-49
2022/09/28 02:16:27;;;;;;;1.90;1.80;;;9.40;99.90;;;;;;5225828;28;20500;-49
2022/09/28 02:18:58;;;;;;;2.07;2.07;;;9.40;99.90;;;;;;5224071;28;20508;-49
2022/09/28 02:21:50;;;;;;;2.80;2.00;;;9.30;99.90;;;;;;5223309;28;20445;-48
2022/09/28 02:24:41;;;;;;;2.37;2.27;;;9.50;99.90;;;;;;5226337;28;20198;-50
2022/09/28 02:27:17;;;;;;;4.57;2.53;;;9.40;99.90;;;;;;5224847;28;20519;-50
2022/09/28 02:29:48;;;;;;;2.33;2.23;;;9.50;99.90;;;;;;5229458;28;20486;-49
2022/09/28 02:32:19;;;;;;;2.40;2.30;;;9.40;99.90;;;;;;5220377;28;20466;-48
2022/09/28 02:34:50;;;;;;;3.03;2.83;;;9.40;99.90;;;;;;5226449;28;20473;-49
2022/09/28 02:37:21;;;;;;;2.77;2.67;;;9.50;99.90;;;;;;5238275;28;20968;-49
2022/09/28 02:39:51;;;;;;;2.87;2.67;;;9.60;99.90;;;;;;5220352;28;20243;-50
2022/09/28 02:42:35;;;;;;;2.40;2.30;;;9.50;99.90;;;;;;5224939;28;20175;-49
2022/09/28 02:45:15;;;;;;;3.03;2.83;;;9.50;99.90;;;;;;5238393;28;20226;-48
2022/09/28 02:48:35;;;;;;;3.43;3.13;;;9.50;99.90;;;;;;5224471;28;20455;-47
2022/09/28 02:51:20;;;;;;;3.10;2.90;;;9.50;99.90;;;;;;5158808;28;20666;-48
2022/09/28 02:54:29;;;;;;;7.50;3.13;;;9.40;99.90;;;;;;5162073;28;20947;-49
2022/09/28 02:57:38;;;;;;;3.87;3.40;;;9.30;99.90;;;;;;5217816;28;20434;-51
2022/09/28 03:00:18;;;;;;;3.53;3.23;;;9.10;99.90;;;;;;5233069;28;20500;-49
2022/09/28 03:03:06;;;;;;;3.97;3.67;;;9.10;99.90;;;;;;5226039;28;20548;-48
2022/09/28 03:05:59;;;;;;;5.10;4.60;;;8.90;99.90;;;;;;5225209;28;20490;-49
2022/09/28 03:08:44;;;;;;;4.13;3.87;;;8.90;99.90;;;;;;5240204;28;20424;-48
2022/09/28 03:11:21;;;;;;;4.20;3.67;;;8.80;99.90;;;;;;5224720;28;20429;-48
2022/09/28 03:13:52;;;;;;;4.40;4.03;;;8.80;99.90;;;;;;5223763;28;20441;-49
2022/09/28 03:16:23;;;;;;;4.67;4.23;;;8.90;99.90;;;;;;5221681;28;20469;-49
2022/09/28 03:18:53;;;;;;;5.03;4.57;;;9.10;99.90;;;;;;5227191;28;20484;-48
2022/09/28 03:21:24;;;;;;;9.27;5.00;;;9.10;99.90;;;;;;5211450;28;20190;-49
2022/09/28 03:23:54;;;;;;;3.53;3.23;;;8.90;99.90;;;;;;5225893;28;20202;-48
2022/09/28 03:26:25;;;;;;;3.60;3.37;;;8.80;99.90;;;;;;5224770;28;20183;-48
2022/09/28 03:28:56;;;;;;;3.60;3.50;;;8.80;99.90;;;;;;5218228;28;26102;-48
2022/09/28 03:31:26;;;;;;;4.13;3.83;;;8.70;99.90;;;;;;5223317;28;20187;-49
2022/09/28 03:33:57;;;;;;;5.20;4.70;;;8.60;99.90;;;;;;5227017;28;20218;-50
2022/09/28 03:36:27;;;;;;;11.77;5.33;;;8.40;99.90;;;;;;5228459;28;20182;-50
2022/09/28 03:38:58;;;;;;;4.87;4.57;;;8.40;99.90;;;;;;5227746;28;20195;-50
2022/09/28 03:41:29;;;;;;;5.00;4.60;;;8.40;99.90;;;;;;5227084;28;20175;-49
2022/09/28 03:43:59;;;;;;;4.73;4.33;;;8.30;99.90;;;;;;5218004;28;20206;-49
2022/09/28 03:46:30;;;;;;;6.43;4.83;;;8.40;99.90;;;;;;5225434;28;20285;-50
2022/09/28 03:49:00;;;;;;;6.67;5.20;;;8.30;99.90;;;;;;5223067;28;20175;-48
2022/09/28 03:51:31;;;;;;;6.00;5.27;;;8.30;99.90;;;;;;5227657;28;20258;-50
2022/09/28 03:54:03;;;;;;;5.00;4.70;;;8.30;99.90;;;;;;5227707;28;20229;-49
2022/09/28 03:56:34;;;;;;;4.83;4.53;;;8.30;99.90;;;;;;5225903;28;20554;-48
2022/09/28 03:59:04;;;;;;;5.10;4.77;;;8.40;99.90;;;;;;5228088;28;20457;-49
2022/09/28 04:01:35;;;;;;;3.80;3.60;;;8.40;99.90;;;;;;5219596;28;20201;-51
2022/09/28 04:04:06;;;;;;;5.30;4.80;;;8.40;99.90;;;;;;5221787;28;20289;-48
2022/09/28 04:06:36;;;;;;;4.80;4.40;;;8.40;99.90;;;;;;5223805;28;20222;-49
2022/09/28 04:09:07;;;;;;;5.50;5.00;;;8.30;99.90;;;;;;5225122;28;20213;-47
2022/09/28 04:11:37;;;;;;;5.10;4.60;;;8.20;99.90;;;;;;5217223;28;20527;-49
2022/09/28 04:14:08;;;;;;;5.10;4.80;;;8.00;99.90;;;;;;5223803;28;20211;-48
2022/09/28 04:16:38;;;;;;;5.97;5.43;;;8.00;99.90;;;;;;5226363;28;20186;-49
2022/09/28 04:19:09;;;;;;;5.50;5.00;;;7.90;99.90;;;;;;5225472;28;20282;-48
2022/09/28 04:21:40;;;;;;;5.30;4.90;;;7.80;99.90;;;;;;5222933;28;20207;-48
2022/09/28 04:24:10;;;;;;;7.00;5.10;;;7.80;99.90;;;;;;5225817;28;20253;-48
2022/09/28 04:26:41;;;;;;;4.97;4.50;;;7.70;99.90;;;;;;5222188;28;20175;-49
2022/09/28 04:29:15;;;;;;;6.40;5.90;;;7.60;99.90;;;;;;5224154;28;20175;-47
2022/09/28 04:31:50;;;;;;;7.33;5.30;;;7.60;99.90;;;;;;5223841;28;20713;-48
2022/09/28 04:34:22;;;;;;;6.30;5.43;;;7.60;99.90;;;;;;5224470;28;20475;-48
2022/09/28 04:36:52;;;;;;;7.80;6.43;;;7.60;99.90;;;;;;5221755;28;20635;-48
2022/09/28 04:39:23;;;;;;;6.50;5.90;;;7.60;99.90;;;;;;5225866;28;20540;-49
2022/09/28 04:41:53;;;;;;;8.37;6.30;;;7.60;99.90;;;;;;5215893;28;20213;-49
2022/09/28 04:44:24;;;;;;;5.93;5.43;;;8.00;99.90;;;;;;5215322;28;20679;-49
2022/09/28 04:46:55;;;;;;;8.13;5.70;;;8.10;99.90;;;;;;5224732;28;20658;-48
2022/09/28 04:49:25;;;;;;;11.27;6.17;;;8.40;99.90;;;;;;5221308;28;20499;-48
2022/09/28 04:51:56;;;;;;;5.90;5.40;;;8.30;99.90;;;;;;5226317;28;20190;-48
2022/09/28 04:54:26;;;;;;;8.63;5.70;;;8.30;99.90;;;;;;5218122;28;20563;-49
2022/09/28 04:56:57;;;;;;;6.77;6.07;;;8.40;99.90;;;;;;5223110;28;20794;-48
2022/09/28 04:59:28;;;;;;;6.00;4.90;;;8.60;99.90;;;;;;5222340;28;20238;-48
2022/09/28 05:01:59;;;;;;;7.87;5.17;;;8.80;99.90;;;;;;5216944;28;20198;-49
2022/09/28 05:04:30;;;;;;;7.27;6.60;;;8.70;99.90;;;;;;5217416;28;20298;-48
2022/09/28 05:07:00;;;;;;;6.90;6.30;;;8.70;99.90;;;;;;5223758;28;20187;-51
2022/09/28 05:09:31;;;;;;;7.87;4.87;;;8.70;99.90;;;;;;5234833;28;20623;-48
2022/09/28 05:12:01;;;;;;;5.50;5.00;;;8.70;99.90;;;;;;5217264;28;20186;-50
2022/09/28 05:14:32;;;;;;;8.30;4.80;;;8.60;99.90;;;;;;5222743;28;20203;-48
2022/09/28 05:17:03;;;;;;;6.53;5.93;;;8.60;99.90;;;;;;5219026;28;20655;-47
2022/09/28 05:19:33;;;;;;;5.90;5.27;;;8.80;99.90;;;;;;5230481;28;20697;-48
2022/09/28 05:22:06;;;;;;;6.07;5.47;;;8.80;99.90;;;;;;5230951;28;20182;-49
2022/09/28 05:24:36;;;;;;;6.53;5.93;;;8.90;99.90;;;;;;5233483;28;20198;-49
2022/09/28 05:27:07;;;;;;;7.10;6.17;;;9.00;99.90;;;;;;5229798;28;20801;-49
2022/09/28 05:29:38;;;;;;;5.67;5.20;;;9.00;99.90;;;;;;5226384;28;20662;-49
2022/09/28 05:32:08;;;;;;;7.03;4.90;;;9.20;99.90;;;;;;5226851;28;20201;-48
2022/09/28 05:34:39;;;;;;;5.30;4.90;;;9.10;99.90;;;;;;5229378;28;20222;-48
2022/09/28 05:37:09;;;;;;;5.27;4.80;;;9.10;99.90;;;;;;5223992;28;20194;-47
2022/09/28 05:39:40;;;;;;;6.47;5.57;;;9.00;99.90;;;;;;5226603;28;20205;-47
2022/09/28 05:42:10;;;;;;;8.80;6.33;;;9.30;99.90;;;;;;5234180;28;20210;-50
2022/09/28 05:44:41;;;;;;;6.37;5.50;;;9.10;99.90;;;;;;5230268;28;20214;-49
2022/09/28 05:47:11;;;;;;;6.53;5.23;;;9.30;99.90;;;;;;5236201;28;20201;-50
2022/09/28 05:49:42;;;;;;;5.43;5.00;;;9.20;99.90;;;;;;5226742;28;20182;-49
2022/09/28 05:52:13;;;;;;;6.80;6.13;;;9.10;99.90;;;;;;5225355;28;20589;-48
2022/09/28 05:54:43;;;;;;;6.67;5.67;;;9.20;99.90;;;;;;5229214;28;20218;-48
2022/09/28 05:57:14;;;;;;;11.33;5.70;;;9.30;99.90;;;;;;5218950;28;20183;-47
2022/09/28 05:59:44;;;;;;;9.37;5.10;;;9.30;99.90;;;;;;5235514;28;20363;-50
2022/09/28 06:02:15;;;;;;;6.57;5.07;;;9.40;99.90;;;;;;5228992;28;20186;-48
2022/09/28 06:04:48;;;;;;;8.00;5.63;;;9.40;99.90;;;;;;5223274;28;20219;-47
2022/09/28 06:07:19;;;;;;;13.07;5.10;;;9.50;99.90;;;;;;5230617;28;20644;-49
2022/09/28 06:09:50;;;;;;;5.03;4.43;;;9.50;99.90;;;;;;5232866;28;21006;-50
2022/09/28 06:12:20;;;;;;;5.37;4.93;;;9.50;99.90;;;;;;5228946;28;20548;-47
2022/09/28 06:14:51;;;;;;;11.63;5.37;;;9.90;99.90;;;;;;5232569;28;20214;-49
2022/09/28 06:17:21;;;;;;;6.20;5.60;;;10.30;99.90;;;;;;5233334;28;20186;-49
2022/09/28 06:19:52;;;;;;;6.70;5.20;;;10.50;99.90;;;;;;5227360;28;20293;-50
2022/09/28 06:22:23;;;;;;;5.40;4.90;;;10.60;99.90;;;;;;5233433;28;20226;-48
2022/09/28 06:24:53;;;;;;;6.97;4.87;;;10.70;99.90;;;;;;5229511;28;20210;-51
2022/09/28 06:27:24;;;;;;;6.47;5.57;;;11.20;99.90;;;;;;5224813;28;20179;-51
2022/09/28 06:29:54;;;;;;;4.80;4.47;;;12.90;99.90;;;;;;5230777;28;20644;-49
2022/09/28 06:32:28;;;;;;;8.77;5.50;;;14.90;99.90;;;;;;5230459;28;20179;-49
2022/09/28 06:34:58;;;;;;;4.23;3.90;;;17.00;99.90;;;;;;5251103;28;20230;-50
2022/09/28 06:37:31;;;;;;;5.90;4.30;;;18.80;91.50;;;;;;5210730;28;20433;-49
2022/09/28 06:40:02;;;;;;;6.70;4.03;;;20.00;75.90;;;;;;5242901;28;20206;-49
2022/09/28 06:42:33;;;;;;;6.60;4.23;;;21.20;64.60;;;;;;5223410;28;20864;-50
2022/09/28 06:45:04;;;;;;;6.07;4.03;;;22.00;59.40;;;;;;5220939;28;20187;-48
2022/09/28 06:47:36;;;;;;;7.93;4.93;;;22.70;55.00;;;;;;5203601;28;20218;-50
2022/09/28 06:50:11;;;;;;;8.67;7.10;;;23.30;51.30;;;;;;5225999;28;20545;-48
2022/09/28 06:52:41;;;;;;;17.60;7.37;;;23.50;50.20;;;;;;5226756;28;20799;-51
2022/09/28 06:55:12;;;;;;;8.43;6.00;;;23.80;49.80;;;;;;5242735;28;20443;-48
2022/09/28 06:57:42;;;;;;;5.17;4.63;;;24.20;48.20;;;;;;5223974;28;20274;-49
2022/09/28 07:00:14;;;;;;;5.17;4.63;;;24.90;46.70;;;;;;5223370;28;20229;-48
2022/09/28 07:02:47;;;;;;;7.70;5.67;;;25.00;45.60;;;;;;5220549;28;20183;-49
2022/09/28 07:05:26;;;;;;;7.23;6.27;;;25.20;45.00;;;;;;5226165;28;20436;-50
2022/09/28 07:07:56;;;;;;;4.73;4.27;;;25.40;44.30;;;;;;5220880;28;20487;-49
2022/09/28 07:10:28;;;;;;;4.57;4.17;;;25.60;43.40;;;;;;5217795;28;20465;-49
2022/09/28 07:13:03;;;;;;;5.43;4.93;;;26.00;43.40;;;;;;5227513;28;20207;-48
2022/09/28 07:15:35;;;;;;;4.37;4.00;;;26.60;41.40;;;;;;5227830;28;20516;-49
2022/09/28 07:18:06;;;;;;;4.57;4.00;;;26.90;40.40;;;;;;5226498;28;20430;-48
2022/09/28 07:20:37;;;;;;;8.03;6.90;;;27.10;40.40;;;;;;5224530;28;20469;-50
2022/09/28 07:23:08;;;;;;;6.07;5.20;;;26.90;38.30;;;;;;5207608;28;20456;-48
2022/09/28 07:25:44;;;;;;;5.73;4.50;;;26.40;39.40;;;;;;5225692;28;20223;-48
2022/09/28 07:28:17;;;;;;;7.83;6.40;;;26.30;40.00;;;;;;5222773;28;20442;-46
2022/09/28 07:30:47;;;;;;;13.83;8.67;;;26.10;39.60;;;;;;5224820;28;20803;-49
2022/09/28 07:33:18;;;;;;;5.30;4.90;;;25.10;41.60;;;;;;5228111;28;20465;-48
2022/09/28 07:35:59;;;;;;;6.87;5.10;;;24.70;42.30;;;;;;5221898;28;20278;-50
2022/09/28 07:38:30;;;;;;;5.50;4.60;;;25.10;42.00;;;;;;5228151;28;20663;-49
2022/09/28 07:41:15;;;;;;;4.77;4.47;;;25.50;41.40;;;;;;5223667;28;20483;-50
2022/09/28 07:43:47;;;;;;;10.37;6.70;;;25.00;41.10;;;;;;5224184;28;20286;-48
2022/09/28 07:46:18;;;;;;;6.00;4.80;;;23.50;43.80;;;;;;5231646;28;20461;-49
2022/09/28 07:48:50;;;;;;;8.10;5.27;;;22.70;45.60;;;;;;5225092;28;20437;-48
2022/09/28 07:51:21;;;;;;;29.40;6.50;;;21.50;47.80;;;;;;5227103;28;20190;-46
2022/09/28 07:53:53;;;;;;;13.30;7.40;;;20.20;50.10;;;;;;5219117;28;20468;-49
2022/09/28 07:56:24;;;;;;;12.10;5.33;;;19.20;52.00;;;;;;5222243;28;20209;-49
2022/09/28 07:58:54;;;;;;;8.07;5.53;;;18.50;54.00;;;;;;5222222;28;20457;-48
2022/09/28 08:01:25;;;;;;;5.83;5.30;;;17.90;55.40;;;;;;5217121;28;20441;-48
2022/09/28 08:03:55;;;;;;;8.27;6.00;;;17.30;56.50;;;;;;5221190;28;20550;-48
2022/09/28 08:06:28;;;;;;;8.40;6.40;;;16.90;57.90;;;;;;5218070;28;20183;-48
2022/09/28 08:09:00;;;;;;;7.67;6.87;;;16.50;58.10;;;;;;5218872;28;20183;-47
2022/09/28 08:11:31;;;;;;;7.30;6.60;;;16.20;59.40;;;;;;5219368;28;20451;-48
2022/09/28 08:14:01;;;;;;;10.23;7.27;;;15.70;61.70;;;;;;5225052;28;20497;-47
2022/09/28 08:16:32;;;;;;;6.93;6.17;;;15.40;64.10;;;;;;5226700;28;20178;-52
2022/09/28 08:19:02;;;;;;;7.17;6.47;;;14.80;68.30;;;;;;5228914;28;20214;-48
2022/09/28 08:21:45;;;;;;;6.17;5.60;;;14.50;73.50;;;;;;5217722;28;20266;-48
2022/09/28 08:24:16;;;;;;;11.67;6.60;;;14.30;78.70;;;;;;5213429;28;20222;-48
2022/09/28 08:26:48;;;;;;;11.73;6.07;;;14.50;82.00;;;;;;5220562;28;20520;-49
2022/09/28 08:29:18;;;;;;;8.93;6.87;;;14.60;83.10;;;;;;5223241;28;20469;-48
2022/09/28 08:31:49;;;;;;;7.10;6.23;;;14.50;84.40;;;;;;5224489;28;20441;-48
2022/09/28 08:34:19;;;;;;;9.00;6.83;;;14.40;87.10;;;;;;5214228;28;20211;-53
2022/09/28 08:36:50;;;;;;;10.27;6.47;;;14.50;90.40;;;;;;5234411;28;20187;-48
2022/09/28 08:39:21;;;;;;;8.67;6.73;;;14.40;90.90;;;;;;5223500;28;20749;-48
2022/09/28 08:42:24;;;;;;;9.20;6.10;;;14.50;92.00;;;;;;5222614;28;20627;-48
2022/09/28 08:45:05;;;;;;;6.87;6.20;;;14.60;92.00;;;;;;5228879;28;20199;-50
2022/09/28 08:50:32;;;;;;;6.57;5.97;;;14.30;92.20;;;;;;5225959;28;20935;-49
2022/09/28 08:53:46;;;;;;;6.13;5.60;;;14.20;93.30;;;;;;5221193;28;20516;-51
2022/09/28 08:56:40;;;;;;;6.80;4.97;;;14.20;93.20;;;;;;5219185;28;20540;-50
2022/09/28 08:59:15;;;;;;;6.23;5.73;;;14.30;93.20;;;;;;5216773;28;20456;-49
2022/09/28 09:02:30;;;;;;;5.67;5.17;;;14.10;93.20;;;;;;5223270;28;20441;-50
2022/09/28 09:05:04;;;;;;;6.37;5.87;;;14.30;93.10;;;;;;5220664;28;20453;-50
2022/09/28 09:07:46;;;;;;;6.13;5.53;;;14.30;92.90;;;;;;5222306;28;20428;-48
2022/09/28 09:10:52;;;;;;;9.50;6.37;;;14.30;93.20;;;;;;5225258;28;20425;-49
2022/09/28 09:13:55;;;;;;;12.30;5.73;;;14.00;93.00;;;;;;5222877;28;20483;-49
2022/09/28 09:16:37;;;;;;;4.97;4.47;;;13.90;94.40;;;;;;5237131;28;20969;-49
2022/09/28 09:19:34;;;;;;;5.57;5.17;;;14.00;94.50;;;;;;5236859;28;20459;-50
2022/09/28 09:22:14;;;;;;;5.67;5.10;;;14.10;94.80;;;;;;5226814;28;20512;-48
2022/09/28 09:24:54;;;;;;;6.30;4.53;;;14.30;94.70;;;;;;5220932;28;20449;-47
2022/09/28 09:27:42;;;;;;;4.67;4.37;;;14.20;94.60;;;;;;5229960;28;20436;-49
2022/09/28 09:30:23;;;;;;;4.70;4.30;;;14.50;92.70;;;;;;5236387;28;20437;-48
2022/09/28 09:33:05;;;;;;;4.40;4.10;;;15.10;91.80;;;;;;5216519;28;20452;-48
2022/09/28 09:35:41;;;;;;;4.13;3.93;;;15.50;90.50;;;;;;5277697;22;20496;-50
2022/09/28 09:38:40;;;;;;;4.37;3.53;;;16.00;87.60;;;;;;5239940;28;20432;-50
2022/09/28 09:41:34;;;;;;;3.27;2.97;;;16.40;83.70;;;;;;5248679;28;20557;-50
2022/09/28 09:44:13;;;;;;;3.77;3.43;;;16.50;80.60;;;;;;5234417;28;21322;-51
2022/09/28 09:46:55;;;;;;;5.60;3.40;;;16.60;77.90;;;;;;5236344;28;20460;-51
2022/09/28 09:49:35;;;;;;;3.77;2.87;;;16.50;75.40;;;;;;5240400;28;20437;-51
2022/09/28 09:52:16;;;;;;;3.23;2.70;;;16.40;76.30;;;;;;5245368;28;20466;-50
2022/09/28 09:55:09;;;;;;;2.93;2.83;;;16.50;74.80;;;;;;5241947;28;20562;-49
2022/09/28 09:57:52;;;;;;;3.53;3.23;;;16.20;74.40;;;;;;5230223;28;20451;-49
2022/09/28 10:00:23;;;;;;;5.37;2.90;;;16.10;74.60;;;;;;5241939;28;20472;-50
2022/09/28 10:02:56;;;;;;;3.67;2.80;;;16.00;74.80;;;;;;5241663;28;20765;-50
2022/09/28 10:05:30;;;;;;;2.20;2.10;;;15.80;74.70;;;;;;5247272;28;20186;-51
2022/09/28 10:08:09;;;;;;;2.90;2.70;;;15.80;75.50;;;;;;5256247;28;20487;-51
2022/09/28 10:10:51;;;;;;;4.23;2.97;;;16.00;75.10;;;;;;5252609;28;20464;-49
2022/09/28 10:13:22;;;;;;;3.10;2.90;;;16.00;73.70;;;;;;5246840;28;20763;-48
2022/09/28 10:15:52;;;;;;;3.57;2.97;;;15.60;73.30;;;;;;5249477;28;20440;-51
2022/09/28 10:18:23;;;;;;;2.53;2.40;;;15.30;75.30;;;;;;5243351;28;20674;-50
2022/09/28 10:20:54;;;;;;;3.53;3.17;;;15.00;77.20;;;;;;5247025;28;20324;-50
2022/09/28 10:23:32;;;;;;;2.10;2.00;;;14.60;78.60;;;;;;5251061;28;20198;-49
2022/09/28 10:26:14;;;;;;;4.40;2.53;;;14.50;78.40;;;;;;5247947;28;20181;-48
2022/09/28 10:29:00;;;;;;;1.20;1.20;;;14.40;76.60;;;;;;5242401;28;20424;-48
2022/09/28 10:31:48;;;;;;;2.33;2.10;;;14.40;75.40;;;;;;5255965;28;20931;-49
2022/09/28 10:34:29;;;;;;;8.90;3.50;;;14.40;75.80;;;;;;5248999;28;20550;-50
2022/09/28 10:37:09;;;;;;;4.27;2.50;;;14.40;76.20;;;;;;5249764;28;20452;-52
2022/09/28 10:39:49;;;;;;;2.73;1.73;;;14.40;76.60;;;;;;5237188;28;20528;-49
2022/09/28 10:42:25;;;;;;;2.30;1.40;;;14.20;76.70;;;;;;5252742;28;20440;-48
2022/09/28 10:45:04;;;;;;;2.37;1.83;;;14.00;78.30;;;;;;5245017;28;20523;-51
2022/09/28 10:47:35;;;;;;;4.20;1.97;;;14.10;79.80;;;;;;5241562;28;20441;-49
2022/09/28 10:50:19;;;;;;;3.60;2.67;;;13.90;80.30;;;;;;5247231;28;20499;-50
2022/09/28 10:52:50;;;;;;;15.60;4.73;;;13.80;80.90;;;;;;5250433;28;20480;-49
2022/09/28 10:55:23;;;;;;;9.07;3.53;;;14.00;79.10;;;;;;5235988;28;20483;-49
2022/09/28 10:57:54;;;;;;;14.37;5.00;;;13.90;79.10;;;;;;5251153;28;20816;-50
2022/09/28 11:00:41;;;;;;;6.73;3.10;;;14.10;78.30;;;;;;5252190;28;20476;-50
2022/09/28 11:03:26;;;;;;;7.30;3.83;;;14.20;78.20;;;;;;5247086;28;20554;-48
2022/09/28 11:06:06;;;;;;;2.60;2.27;;;14.30;78.10;;;;;;5250923;28;20804;-48
2022/09/28 11:08:41;;;;;;;8.43;2.93;;;14.40;77.20;;;;;;5253688;28;20491;-50
2022/09/28 11:11:18;;;;;;;2.37;2.13;;;14.50;77.70;;;;;;5240711;28;20540;-49
2022/09/28 11:13:59;;;;;;;2.00;1.60;;;14.60;77.60;;;;;;5254680;28;20870;-53
2022/09/28 11:16:33;;;;;;;4.43;3.87;;;14.90;74.70;;;;;;5254430;28;20448;-51
2022/09/28 11:19:28;;;;;;;4.20;2.43;;;14.90;75.60;;;;;;5252549;28;20448;-49
2022/09/28 11:22:00;;;;;;;9.93;3.60;;;15.00;75.10;;;;;;5244722;28;20805;-49
2022/09/28 11:24:30;;;;;;;3.50;2.60;;;15.10;75.00;;;;;;5253514;28;20457;-49
2022/09/28 11:27:01;;;;;;;5.87;3.60;;;15.10;77.10;;;;;;5257522;28;20807;-50
2022/09/28 11:29:32;;;;;;;4.93;3.83;;;15.20;77.60;;;;;;5251548;28;20273;-48
2022/09/28 11:32:04;;;;;;;3.50;2.50;;;15.30;76.30;;;;;;5257341;28;20216;-48
2022/09/28 11:34:57;;;;;;;7.60;3.50;;;15.20;77.40;;;;;;5251287;28;20224;-50
2022/09/28 11:38:02;;;;;;;4.00;1.67;;;15.30;78.40;;;;;;5254798;28;20854;-51
2022/09/28 11:40:54;;;;;;;2.23;1.83;;;15.40;76.90;;;;;;5257313;28;20818;-51
2022/09/28 11:43:54;;;;;;;5.37;2.10;;;15.40;74.90;;;;;;5243658;28;20616;-48
2022/09/28 11:46:29;;;;;;;1.20;1.20;;;15.20;75.60;;;;;;5234626;28;20436;-50
2022/09/28 11:49:24;;;;;;;4.40;1.83;;;14.90;76.40;;;;;;5248568;28;20432;-49
2022/09/28 11:52:00;;;;;;;1.70;1.60;;;14.70;78.10;;;;;;5251182;28;20511;-50
2022/09/28 11:54:50;;;;;;;1.20;1.20;;;14.60;79.70;;;;;;5244295;28;20460;-51
2022/09/28 11:57:28;;;;;;;1.47;1.20;;;14.60;79.80;;;;;;5249096;28;20436;-49
2022/09/28 12:00:08;;;;;;;4.17;1.40;;;14.70;78.80;;;;;;5251347;28;20471;-50
2022/09/28 12:02:45;;;;;;;1.40;1.40;;;14.70;77.50;;;;;;5247688;28;20472;-48
2022/09/28 12:05:15;;;;;;;1.30;1.30;;;14.50;79.30;;;;;;5252778;28;20448;-52
2022/09/28 12:08:14;;;;;;;1.00;1.00;;;14.50;79.70;;;;;;5247836;28;20481;-49
2022/09/28 12:10:59;;;;;;;1.80;1.70;;;14.70;80.00;;;;;;5234270;28;20205;-49
2022/09/28 12:13:34;;;;;;;1.47;1.47;;;15.00;77.40;;;;;;5248202;28;20795;-49
2022/09/28 12:16:13;;;;;;;1.50;1.40;;;14.80;77.40;;;;;;5242541;28;20521;-51
2022/09/28 12:19:01;;;;;;;1.37;1.27;;;14.60;78.30;;;;;;5252823;28;20446;-49
2022/09/28 12:21:37;;;;;;;1.77;1.30;;;14.60;77.80;;;;;;5247596;28;20444;-49
2022/09/28 12:24:28;;;;;;;2.07;1.90;;;14.40;77.40;;;;;;5251130;28;20455;-50
2022/09/28 12:27:08;;;;;;;1.10;1.00;;;14.50;76.60;;;;;;5247796;28;20445;-49
2022/09/28 12:29:47;;;;;;;1.00;1.00;;;14.60;74.90;;;;;;5239729;28;20510;-50
2022/09/28 12:32:25;;;;;;;0.70;0.70;;;14.60;75.60;;;;;;5250653;28;20807;-49
2022/09/28 12:34:56;;;;;;;1.10;1.10;;;14.70;74.50;;;;;;5257588;28;20468;-48
2022/09/28 12:37:43;;;;;;;1.53;1.53;;;14.50;73.50;;;;;;5248803;28;20440;-49
2022/09/28 12:40:35;;;;;;;2.63;0.97;;;14.80;72.70;;;;;;5250497;28;20467;-50
2022/09/28 12:43:16;;;;;;;0.80;0.80;;;14.80;71.80;;;;;;5248427;28;20431;-52
2022/09/28 12:46:15;;;;;;;1.50;1.40;;;15.00;71.40;;;;;;5242351;28;20806;-51
2022/09/28 12:48:51;;;;;;;18.00;9.90;;;15.00;72.40;;;;;;5247039;28;20436;-49
2022/09/28 12:51:43;;;;;;;4.73;2.63;;;15.00;72.40;;;;;;5250607;28;20450;-49
2022/09/28 12:54:20;;;;;;;1.83;1.73;;;15.00;72.40;;;;;;5243077;28;20456;-51
2022/09/28 12:57:07;;;;;;;1.53;1.37;;;14.80;72.90;;;;;;5249161;28;20436;-51
2022/09/28 12:59:47;;;;;;;4.10;2.97;;;14.90;73.10;;;;;;5239772;28;20471;-51
2022/09/28 13:03:01;;;;;;;6.00;3.20;;;14.90;71.70;;;;;;5242449;28;20424;-51
2022/09/28 13:05:59;;;;;;;2.07;1.97;;;14.70;71.30;;;;;;5243812;28;20459;-50
2022/09/28 13:08:41;;;;;;;4.90;4.13;;;14.70;72.20;;;;;;5238979;28;20506;-50
2022/09/28 13:11:15;;;;;;;1.10;1.10;;;14.70;72.40;;;;;;5251249;28;20428;-51
2022/09/28 13:14:17;;;;;;;7.33;0.83;;;14.60;71.40;;;;;;5246572;28;20935;-49
2022/09/28 13:16:57;;;;;;;0.77;0.77;;;14.50;73.50;;;;;;5239078;28;20815;-50
2022/09/28 13:19:58;;;;;;;0.70;0.70;;;14.40;73.30;;;;;;5246983;28;20517;-50
2022/09/28 13:22:55;;;;;;;0.90;0.70;;;14.30;73.00;;;;;;5242438;28;20448;-52
2022/09/28 13:25:29;;;;;;;1.93;1.80;;;14.30;72.00;;;;;;5251842;28;20585;-52
2022/09/28 13:28:03;;;;;;;10.30;7.67;;;14.60;73.00;;;;;;5253110;28;20455;-50
2022/09/28 13:30:38;;;;;;;1.40;1.40;;;14.50;72.60;;;;;;5244215;28;20515;-52
2022/09/28 13:33:20;;;;;;;1.23;1.20;;;14.60;71.50;;;;;;5234162;28;20459;-51
2022/09/28 13:35:51;;;;;;;1.00;1.00;;;14.40;69.70;;;;;;5240454;28;20467;-51
2022/09/28 13:38:21;;;;;;;1.00;1.00;;;14.30;70.80;;;;;;5246628;28;20442;-49
2022/09/28 13:41:04;;;;;;;1.60;0.73;;;14.40;71.60;;;;;;5249397;28;20658;-52
2022/09/28 13:43:52;;;;;;;0.73;0.73;;;14.40;70.60;;;;;;5238745;28;20209;-50